Time;durP1;ratioP1;P1;durP2;ratioP2;P2;SDS_P1;SDS_P2;PMS_P1;PMS_P2;Temp;Humidity;BMP_temperature;BMP_pressure;BME280_temperature;BME280_humidity;BME280_pressure;Samples;Min_cycle;Max_cycle;Signal;HPM_P1;HPM_P2
2022/05/30 00:01:43;;;;;;;1.75;0.70;;;;;;;8.21;91.48;101292.19;5069708;28;20032;-74
2022/05/30 00:04:09;;;;;;;6.05;1.63;;;;;;;8.23;91.60;101290.28;5085349;28;20024;-74
2022/05/30 00:06:35;;;;;;;6.97;1.02;;;;;;;8.22;91.62;101280.72;5071152;28;20457;-74
2022/05/30 00:09:01;;;;;;;3.92;1.33;;;;;;;8.29;91.68;101282.84;5069805;28;20043;-75
2022/05/30 00:11:27;;;;;;;4.32;1.05;;;;;;;8.24;91.14;101276.16;5071247;28;20503;-75
2022/05/30 00:13:53;;;;;;;2.78;1.00;;;;;;;8.32;90.94;101279.94;5036358;28;20134;-75
2022/05/30 00:16:22;;;;;;;3.00;0.70;;;;;;;8.34;89.84;101281.53;5071202;28;20062;-75
2022/05/30 00:18:48;;;;;;;2.13;0.60;;;;;;;8.44;88.77;101292.16;5089537;28;20074;-74
2022/05/30 00:21:17;;;;;;;1.30;0.70;;;;;;;8.47;90.22;101299.81;5053034;28;20024;-74
2022/05/30 00:23:42;;;;;;;2.15;1.10;;;;;;;8.39;90.43;101284.59;5085152;28;20080;-74
2022/05/30 00:26:09;;;;;;;1.35;0.75;;;;;;;8.40;91.81;101288.06;5069394;28;20039;-74
2022/05/30 00:28:35;;;;;;;2.13;0.80;;;;;;;8.43;92.38;101288.69;5086378;28;20088;-74
2022/05/30 00:31:01;;;;;;;1.73;0.90;;;;;;;8.48;92.89;101280.41;5083483;28;20083;-74
2022/05/30 00:33:26;;;;;;;3.53;1.00;;;;;;;8.49;93.74;101263.66;5067726;28;20421;-74
2022/05/30 00:35:52;;;;;;;4.78;1.08;;;;;;;8.58;93.28;101273.44;5086450;28;20102;-74
2022/05/30 00:38:17;;;;;;;3.72;0.93;;;;;;;8.58;93.03;101262.94;5083809;28;20417;-74
2022/05/30 00:40:43;;;;;;;3.10;0.70;;;;;;;8.74;93.36;101280.06;5086090;28;20040;-74
2022/05/30 00:43:32;;;;;;;4.85;1.20;;;;;;;8.73;93.87;101281.03;5083745;28;20032;-74
2022/05/30 00:46:03;;;;;;;3.72;1.30;;;;;;;8.63;95.15;101276.53;5084997;28;20135;-74
2022/05/30 00:48:34;;;;;;;6.15;1.15;;;;;;;8.61;96.71;101277.63;5086389;28;20385;-74
2022/05/30 00:51:07;;;;;;;1.80;1.00;;;;;;;8.56;96.66;101275.38;5085424;28;20024;-74
2022/05/30 00:53:34;;;;;;;6.03;1.25;;;;;;;8.45;97.88;101283.31;5083729;28;20024;-74
2022/05/30 00:56:01;;;;;;;4.28;1.30;;;;;;;8.33;98.95;101279.84;5082737;28;20048;-74
2022/05/30 00:58:31;;;;;;;5.78;1.25;;;;;;;8.15;99.46;101255.88;5072692;28;20037;-74
2022/05/30 01:00:57;;;;;;;2.42;1.02;;;;;;;8.27;99.83;101292.66;5072482;28;20020;-74
2022/05/30 01:08:53;;;;;;;4.82;1.20;;;;;;;8.15;99.88;101268.19;5071260;28;20175;-74
2022/05/30 01:11:19;;;;;;;5.13;1.85;;;;;;;8.15;100.00;101276.91;5072981;28;20024;-74
2022/05/30 01:13:44;;;;;;;4.90;1.42;;;;;;;8.18;100.00;101273.19;5070606;28;20496;-74
2022/05/30 01:16:10;;;;;;;2.75;1.20;;;;;;;8.14;100.00;101272.59;5086692;28;20024;-74
2022/05/30 01:18:40;;;;;;;3.42;1.75;;;;;;;7.97;100.00;101258.19;5070298;28;20392;-74
2022/05/30 01:21:18;;;;;;;5.03;1.02;;;;;;;8.09;100.00;101276.56;5086808;28;20119;-74
2022/05/30 01:24:14;;;;;;;6.18;1.20;;;;;;;8.06;100.00;101274.16;5085978;28;20021;-74
2022/05/30 01:27:04;;;;;;;6.43;1.48;;;;;;;7.95;100.00;101275.88;5070801;28;20021;-73
2022/05/30 01:29:40;;;;;;;7.20;1.25;;;;;;;7.82;100.00;101273.41;5070896;28;20040;-73
2022/05/30 01:32:05;;;;;;;5.38;1.02;;;;;;;7.78;100.00;101269.34;5068011;28;20028;-73
2022/05/30 01:34:31;;;;;;;6.72;1.10;;;;;;;7.76;100.00;101271.25;5071271;28;20526;-74
2022/05/30 01:36:56;;;;;;;3.22;1.35;;;;;;;7.71;100.00;101265.53;5069178;28;20020;-74
2022/05/30 01:39:21;;;;;;;5.50;1.20;;;;;;;7.66;100.00;101259.78;5070046;28;20108;-74
2022/05/30 01:41:47;;;;;;;5.55;1.45;;;;;;;7.66;100.00;101253.69;5068167;28;20056;-74
2022/05/30 01:44:14;;;;;;;7.38;1.30;;;;;;;7.74;100.00;101265.28;5065626;28;20057;-74
2022/05/30 01:46:40;;;;;;;4.03;1.15;;;;;;;7.73;100.00;101266.25;5051087;28;20102;-74
2022/05/30 01:49:06;;;;;;;4.32;1.00;;;;;;;7.77;100.00;101272.94;5017373;28;20091;-74
2022/05/30 01:51:32;;;;;;;5.55;1.33;;;;;;;7.73;100.00;101260.13;5033692;28;20029;-74
2022/05/30 01:53:58;;;;;;;1.83;1.02;;;;;;;7.63;100.00;101252.16;5052006;28;20075;-74
2022/05/30 01:56:24;;;;;;;5.82;1.42;;;;;;;7.61;100.00;101267.19;5033542;28;20029;-74
2022/05/30 01:58:50;;;;;;;4.80;1.20;;;;;;;7.50;100.00;101254.09;5033207;28;20554;-74
2022/05/30 02:01:22;;;;;;;3.55;1.50;;;;;;;7.43;100.00;101258.97;5048975;28;20028;-74
2022/05/30 02:03:50;;;;;;;2.22;1.20;;;;;;;7.38;100.00;101255.84;5051456;28;20028;-75
2022/05/30 02:06:16;;;;;;;5.05;1.60;;;;;;;7.31;100.00;101250.25;5051591;28;20527;-73
2022/05/30 02:08:42;;;;;;;3.25;1.20;;;;;;;7.33;100.00;101256.22;5051352;28;20035;-73
2022/05/30 02:11:10;;;;;;;5.85;2.03;;;;;;;7.16;100.00;101230.44;5052055;28;20052;-73
2022/05/30 02:13:37;;;;;;;4.10;1.25;;;;;;;7.11;100.00;101232.59;5017454;28;20025;-73
2022/05/30 02:18:49;;;;;;;1.98;1.27;;;;;;;7.08;100.00;101238.09;5049427;28;20063;-73
2022/05/30 02:21:15;;;;;;;5.68;1.60;;;;;;;7.06;100.00;101227.69;5050321;28;20029;-73
2022/05/30 02:23:41;;;;;;;3.10;1.33;;;;;;;7.20;100.00;101242.38;5032170;28;20473;-73
2022/05/30 02:26:06;;;;;;;4.18;1.67;;;;;;;7.26;100.00;101239.28;5031980;28;20021;-74
2022/05/30 02:28:31;;;;;;;3.80;1.20;;;;;;;7.21;100.00;101228.31;5030373;28;20098;-74
2022/05/30 02:30:57;;;;;;;4.40;1.65;;;;;;;7.27;100.00;101227.81;5050000;28;20016;-73
2022/05/30 02:38:51;;;;;;;1.75;1.00;;;;;;;7.37;99.48;101228.75;5034446;28;20044;-73
2022/05/30 02:41:18;;;;;;;1.98;0.88;;;;;;;7.43;99.19;101237.13;5031831;28;20393;-73
2022/05/30 02:43:44;;;;;;;2.13;1.05;;;;;;;7.30;99.56;101238.09;5031719;28;20032;-73
2022/05/30 02:46:09;;;;;;;5.32;1.30;;;;;;;7.37;99.70;101238.44;5031944;28;20032;-73
2022/05/30 02:48:35;;;;;;;2.30;1.40;;;;;;;7.39;99.68;101234.75;5050684;28;20055;-74
2022/05/30 02:51:01;;;;;;;2.17;1.10;;;;;;;7.38;99.65;101240.97;5033792;28;20025;-73
2022/05/30 02:53:26;;;;;;;3.47;1.00;;;;;;;7.36;99.54;101240.25;5050908;28;20021;-73
2022/05/30 02:55:51;;;;;;;4.05;1.52;;;;;;;7.45;99.57;101243.94;5050641;28;20552;-75
2022/05/30 02:58:17;;;;;;;3.47;1.10;;;;;;;7.51;99.84;101250.47;5029298;28;20072;-73
2022/05/30 03:00:43;;;;;;;3.63;1.17;;;;;;;7.53;99.72;101249.41;5050362;28;20493;-73
2022/05/30 03:03:08;;;;;;;2.78;0.90;;;;;;;7.59;99.73;101246.31;5015869;28;20029;-75
2022/05/30 03:05:33;;;;;;;2.63;0.80;;;;;;;7.63;99.18;101250.34;5031206;28;20377;-74
2022/05/30 03:08:03;;;;;;;1.75;1.02;;;;;;;7.67;98.93;101245.72;5048759;28;20468;-74
2022/05/30 03:10:28;;;;;;;3.22;1.02;;;;;;;7.55;98.35;101223.03;5030462;28;20026;-74
2022/05/30 03:12:53;;;;;;;3.70;0.88;;;;;;;7.70;98.27;101248.09;5031660;28;20033;-74
2022/05/30 03:15:19;;;;;;;2.25;1.17;;;;;;;7.60;98.31;101221.72;5032080;28;20477;-74
2022/05/30 03:17:44;;;;;;;1.63;0.73;;;;;;;7.77;97.37;101244.03;4999499;28;20029;-73
2022/05/30 03:20:10;;;;;;;1.63;0.90;;;;;;;7.83;97.23;101251.41;5032450;28;20031;-73
2022/05/30 03:22:35;;;;;;;2.85;0.90;;;;;;;7.72;97.86;101227.78;5032856;28;20033;-73
2022/05/30 03:25:00;;;;;;;3.88;1.00;;;;;;;7.74;98.44;101236.38;5033262;28;20017;-74
2022/05/30 03:27:26;;;;;;;5.53;1.02;;;;;;;7.76;98.46;101239.72;5049682;28;20029;-73
2022/05/30 03:29:51;;;;;;;5.28;1.70;;;;;;;7.71;97.80;101227.88;5033348;28;20036;-73
2022/05/30 03:32:16;;;;;;;3.03;1.10;;;;;;;7.76;98.17;101233.63;5031438;28;20064;-75
2022/05/30 03:34:42;;;;;;;3.13;1.17;;;;;;;7.82;98.29;101239.25;4998564;28;20094;-74
2022/05/30 03:37:07;;;;;;;1.50;0.88;;;;;;;7.80;98.69;101229.81;5031970;28;20029;-74
2022/05/30 03:39:32;;;;;;;2.00;0.90;;;;;;;7.78;98.18;101236.97;5030767;28;20032;-74
2022/05/30 03:41:58;;;;;;;3.83;1.00;;;;;;;7.75;98.36;101235.44;5030953;28;20542;-74
2022/05/30 03:44:23;;;;;;;4.30;1.20;;;;;;;7.85;98.71;101234.69;5024602;28;20060;-74
2022/05/30 03:46:48;;;;;;;1.70;1.00;;;;;;;7.92;99.05;101241.13;5067758;28;20024;-74
2022/05/30 03:49:14;;;;;;;3.95;1.15;;;;;;;7.85;99.17;101243.41;5067698;28;20103;-74
2022/05/30 03:51:39;;;;;;;2.72;1.23;;;;;;;7.86;99.45;101241.59;5070638;28;20787;-74
2022/05/30 03:54:04;;;;;;;3.08;1.17;;;;;;;7.92;99.56;101247.19;5071824;28;20444;-74
2022/05/30 03:56:30;;;;;;;4.45;1.23;;;;;;;7.91;99.67;101252.59;5072997;28;20472;-74
2022/05/30 03:58:55;;;;;;;4.05;1.27;;;;;;;7.90;99.22;101228.09;5071428;28;20036;-74
2022/05/30 04:01:21;;;;;;;2.13;0.90;;;;;;;8.06;99.76;101246.13;5089042;28;20112;-74
2022/05/30 04:03:46;;;;;;;2.38;1.00;;;;;;;8.14;99.71;101250.72;5072806;28;20082;-74
2022/05/30 04:06:12;;;;;;;4.85;1.20;;;;;;;8.21;98.97;101254.56;5072570;28;20028;-74
2022/05/30 04:08:37;;;;;;;2.80;1.20;;;;;;;8.29;99.08;101248.66;5072387;28;20032;-74
2022/05/30 04:11:03;;;;;;;3.15;1.05;;;;;;;8.34;98.86;101231.56;5073230;28;20510;-74
2022/05/30 04:13:28;;;;;;;2.47;0.90;;;;;;;8.47;97.64;101236.69;5071403;28;20029;-74
2022/05/30 04:15:54;;;;;;;2.65;1.00;;;;;;;8.46;97.67;101227.09;5071310;28;20031;-74
2022/05/30 04:18:19;;;;;;;2.85;1.33;;;;;;;8.61;97.10;101244.25;5071309;28;20472;-74
2022/05/30 04:20:46;;;;;;;4.85;1.25;;;;;;;8.62;96.99;101240.66;5087593;28;20484;-74
2022/05/30 04:23:12;;;;;;;4.57;1.15;;;;;;;8.54;97.27;101245.72;5073042;28;20441;-74
2022/05/30 04:25:38;;;;;;;1.73;1.02;;;;;;;8.37;98.03;101222.56;5072142;28;20082;-74
2022/05/30 04:28:03;;;;;;;1.75;0.88;;;;;;;8.43;98.68;101238.72;5069122;28;20501;-74
2022/05/30 04:30:30;;;;;;;4.47;1.25;;;;;;;8.38;98.42;101230.34;5069138;28;20051;-74
2022/05/30 04:32:55;;;;;;;1.88;1.25;;;;;;;8.19;99.52;101240.69;5073237;28;20037;-74
2022/05/30 04:35:21;;;;;;;3.38;1.23;;;;;;;8.19;100.00;101240.69;5088153;28;20035;-74
2022/05/30 04:37:47;;;;;;;2.80;1.02;;;;;;;8.24;100.00;101247.25;5071910;28;20032;-74
2022/05/30 04:40:16;;;;;;;1.88;1.05;;;;;;;8.21;100.00;101231.72;5072905;28;20036;-74
2022/05/30 04:42:42;;;;;;;2.17;1.00;;;;;;;8.27;99.62;101247.94;5071966;28;20086;-74
2022/05/30 04:45:08;;;;;;;3.95;1.00;;;;;;;8.08;100.00;101212.66;5060950;28;20045;-74
2022/05/30 04:47:35;;;;;;;3.05;1.38;;;;;;;8.23;99.38;101248.22;5053624;28;20515;-74
2022/05/30 04:50:03;;;;;;;6.53;2.10;;;;;;;8.19;100.00;101235.44;5052798;28;20017;-74
2022/05/30 04:52:29;;;;;;;2.83;1.30;;;;;;;8.21;100.00;101244.88;5053620;28;20031;-74
2022/05/30 04:54:54;;;;;;;2.30;1.50;;;;;;;8.17;100.00;101242.63;5053373;28;20021;-74
2022/05/30 04:57:19;;;;;;;6.20;1.80;;;;;;;8.14;100.00;101242.84;5053471;28;20555;-74
2022/05/30 04:59:45;;;;;;;3.80;1.60;;;;;;;8.06;100.00;101240.00;5052809;28;20056;-74
2022/05/30 05:02:12;;;;;;;3.92;1.40;;;;;;;7.96;100.00;101242.53;5050371;28;20033;-74
2022/05/30 05:04:39;;;;;;;4.18;1.63;;;;;;;7.74;100.00;101219.78;5035317;28;20032;-74
2022/05/30 05:07:05;;;;;;;3.50;1.42;;;;;;;7.92;100.00;101249.00;5035124;28;20421;-74
2022/05/30 05:09:56;;;;;;;4.10;1.20;;;;;;;8.01;100.00;101254.38;5034328;28;20063;-74
2022/05/30 05:12:22;;;;;;;2.63;1.02;;;;;;;8.08;100.00;101248.59;5050419;28;20027;-75
2022/05/30 05:14:47;;;;;;;8.23;2.03;;;;;;;8.09;100.00;101247.66;5015820;28;20052;-74
2022/05/30 05:17:13;;;;;;;2.65;1.30;;;;;;;7.96;100.00;101237.28;5050500;28;20041;-75
2022/05/30 05:19:40;;;;;;;2.00;1.08;;;;;;;8.11;100.00;101251.81;5028398;28;20029;-75
2022/05/30 05:22:07;;;;;;;7.07;2.58;;;;;;;8.15;100.00;101247.16;5050066;28;20116;-75
2022/05/30 05:24:33;;;;;;;3.42;1.60;;;;;;;8.27;100.00;101247.94;5015586;28;20158;-75
2022/05/30 05:26:59;;;;;;;4.70;2.65;;;;;;;8.53;100.00;101249.31;5043055;28;20027;-75
2022/05/30 05:29:25;;;;;;;2.90;0.90;;;;;;;8.80;100.00;101253.25;5047947;28;20538;-77
2022/05/30 05:31:51;;;;;;;3.17;0.88;;;;;;;8.99;100.00;101268.31;5030737;28;20017;-74
2022/05/30 05:34:17;;;;;;;2.17;0.95;;;;;;;9.20;100.00;101257.78;5048689;28;20048;-75
2022/05/30 05:36:46;;;;;;;4.03;1.08;;;;;;;9.37;98.97;101265.06;5047830;28;20029;-77
2022/05/30 05:39:13;;;;;;;2.40;0.68;;;;;;;9.42;97.70;101252.31;5030902;28;20196;-76
2022/05/30 05:41:41;;;;;;;2.30;0.85;;;;;;;9.46;95.55;101248.44;5048383;28;20481;-77
2022/05/30 05:44:07;;;;;;;0.93;0.50;;;;;;;9.67;95.64;101276.56;5052902;28;20082;-77
2022/05/30 05:46:33;;;;;;;2.97;1.00;;;;;;;9.78;95.20;101273.81;5067638;28;20040;-77
2022/05/30 05:48:59;;;;;;;4.95;1.02;;;;;;;9.81;94.52;101263.00;5083510;28;20123;-77
2022/05/30 05:51:27;;;;;;;1.95;0.75;;;;;;;9.92;93.22;101279.69;5065685;28;20427;-77
2022/05/30 05:53:53;;;;;;;1.35;0.80;;;;;;;10.02;93.00;101276.09;5066784;28;20040;-77
2022/05/30 05:56:29;;;;;;;2.53;0.90;;;;;;;9.99;92.55;101249.16;5067764;28;20031;-77
2022/05/30 05:58:54;;;;;;;1.38;0.90;;;;;;;10.12;91.87;101252.38;5069597;28;20134;-77
2022/05/30 06:01:23;;;;;;;6.15;1.33;;;;;;;10.37;91.58;101258.13;5065942;28;20068;-77
2022/05/30 06:03:56;;;;;;;2.60;0.90;;;;;;;10.65;90.90;101267.84;5053621;28;20481;-77
2022/05/30 06:06:22;;;;;;;2.80;0.70;;;;;;;10.56;90.10;101244.06;5069361;28;20032;-78
2022/05/30 06:08:49;;;;;;;2.40;0.68;;;;;;;10.77;90.01;101267.69;5065718;28;20025;-77
2022/05/30 06:11:15;;;;;;;2.08;0.60;;;;;;;10.81;88.93;101259.34;5066688;28;20032;-77
2022/05/30 06:13:46;;;;;;;2.08;0.73;;;;;;;10.94;87.47;101280.16;5037717;28;20060;-77
2022/05/30 06:16:24;;;;;;;1.25;0.63;;;;;;;10.90;87.63;101265.56;5084353;28;20087;-76
2022/05/30 06:18:51;;;;;;;0.82;0.50;;;;;;;10.96;87.05;101270.28;5068330;28;20092;-76
2022/05/30 06:21:17;;;;;;;1.48;0.60;;;;;;;10.83;86.48;101259.19;5052009;28;20036;-76
2022/05/30 06:23:46;;;;;;;1.05;0.57;;;;;;;11.01;85.97;101278.63;5070126;28;20025;-78
2022/05/30 06:26:13;;;;;;;1.00;0.47;;;;;;;11.10;86.74;101285.72;5067735;28;20086;-78
2022/05/30 06:28:40;;;;;;;3.13;0.80;;;;;;;11.21;85.98;101286.50;5070101;28;20036;-77
2022/05/30 06:31:07;;;;;;;3.08;0.50;;;;;;;11.12;86.33;101259.13;5083561;28;20033;-78
2022/05/30 06:33:33;;;;;;;1.80;0.90;;;;;;;11.51;87.25;101294.19;5071137;28;20086;-77
2022/05/30 06:35:58;;;;;;;1.23;0.68;;;;;;;11.69;86.61;101294.25;5037090;28;20024;-77
2022/05/30 06:38:24;;;;;;;1.67;0.73;;;;;;;11.72;86.66;101299.25;5072347;28;20511;-77
2022/05/30 06:40:49;;;;;;;1.63;0.68;;;;;;;11.60;86.71;101294.28;5071293;28;20504;-77
2022/05/30 06:43:14;;;;;;;2.30;0.50;;;;;;;11.50;88.10;101305.75;5051030;28;20111;-78
2022/05/30 06:45:46;;;;;;;2.35;0.60;;;;;;;11.47;89.15;101303.38;5053403;28;20566;-77
2022/05/30 06:48:12;;;;;;;1.75;0.50;;;;;;;11.56;88.40;101304.31;5056029;28;21127;-78
2022/05/30 06:50:37;;;;;;;1.95;0.70;;;;;;;11.59;88.38;101304.03;5056126;28;20029;-78
2022/05/30 06:53:03;;;;;;;2.28;0.50;;;;;;;11.48;87.35;101304.22;5063416;28;20040;-78
2022/05/30 06:55:30;;;;;;;1.33;0.40;;;;;;;11.52;86.40;101297.69;5050224;28;20095;-78
2022/05/30 06:58:14;;;;;;;1.58;0.50;;;;;;;11.53;86.96;101300.16;5069068;28;20493;-78
2022/05/30 07:00:41;;;;;;;1.67;0.43;;;;;;;11.50;86.31;101300.44;5066856;28;20028;-78
2022/05/30 07:03:06;;;;;;;1.63;0.60;;;;;;;11.57;85.91;101300.72;5067798;28;20032;-79
2022/05/30 07:05:31;;;;;;;0.75;0.40;;;;;;;11.70;86.96;101297.72;5066758;28;20475;-78
2022/05/30 07:07:58;;;;;;;1.38;0.50;;;;;;;11.77;86.53;101296.16;5068188;28;20036;-78
2022/05/30 07:10:25;;;;;;;1.45;0.38;;;;;;;11.95;86.52;101314.75;5065896;28;20028;-77
2022/05/30 07:12:51;;;;;;;5.72;0.68;;;;;;;12.02;86.40;101313.19;5066610;28;20115;-76
2022/05/30 07:15:16;;;;;;;1.50;0.60;;;;;;;12.35;86.65;101295.00;5066636;28;20598;-77
2022/05/30 07:17:42;;;;;;;1.75;0.70;;;;;;;12.64;83.70;101289.47;5065095;28;20037;-77
2022/05/30 07:20:08;;;;;;;0.73;0.30;;;;;;;12.97;82.33;101289.72;5066065;28;20028;-77
2022/05/30 07:22:33;;;;;;;1.55;0.38;;;;;;;13.26;79.23;101277.97;5066688;28;20035;-77
2022/05/30 07:24:59;;;;;;;1.52;0.40;;;;;;;13.72;76.34;101308.59;5065959;28;20021;-78
2022/05/30 07:27:24;;;;;;;0.57;0.38;;;;;;;14.14;75.80;101306.91;5087307;28;20129;-78
2022/05/30 07:29:49;;;;;;;1.45;0.45;;;;;;;14.57;75.36;101305.84;5069730;28;20044;-78
2022/05/30 07:32:15;;;;;;;0.47;0.20;;;;;;;14.59;72.62;101309.19;5086300;28;20025;-78
2022/05/30 07:34:40;;;;;;;1.35;0.30;;;;;;;14.84;73.11;101305.69;5071479;28;20025;-78
2022/05/30 07:37:06;;;;;;;0.60;0.30;;;;;;;15.52;69.95;101310.53;5069827;28;20469;-78
2022/05/30 07:39:36;;;;;;;2.90;0.35;;;;;;;15.26;69.65;101297.47;5071530;28;20028;-80
2022/05/30 07:42:03;;;;;;;0.30;0.22;;;;;;;15.74;69.52;101314.34;5086750;28;20027;-78
2022/05/30 07:44:28;;;;;;;3.50;0.57;;;;;;;16.59;68.73;101312.66;5070986;28;20051;-78
2022/05/30 07:46:53;;;;;;;1.35;0.50;;;;;;;17.19;66.49;101308.34;5070676;28;20032;-78
2022/05/30 07:49:19;;;;;;;2.25;0.40;;;;;;;17.72;63.12;101314.41;5072477;28;20115;-79
2022/05/30 07:51:45;;;;;;;4.97;0.60;;;;;;;18.16;62.99;101310.03;5071618;28;20029;-79
2022/05/30 07:54:10;;;;;;;1.33;0.43;;;;;;;18.45;61.40;101314.47;5072191;28;20039;-79
2022/05/30 07:56:36;;;;;;;1.08;0.50;;;;;;;17.76;60.70;101312.22;5073484;28;20392;-79
2022/05/30 07:59:01;;;;;;;0.70;0.40;;;;;;;18.42;63.49;101309.50;5073907;28;20085;-79
2022/05/30 08:01:27;;;;;;;0.90;0.50;;;;;;;17.47;61.13;101305.88;5072466;28;20025;-78
2022/05/30 08:03:53;;;;;;;1.70;0.43;;;;;;;17.87;60.88;101312.59;5087229;28;20135;-78
2022/05/30 08:06:24;;;;;;;6.10;0.60;;;;;;;17.89;58.06;101307.91;5070222;28;20028;-78
2022/05/30 08:08:51;;;;;;;2.03;0.47;;;;;;;16.97;62.38;101296.75;5067710;28;20028;-78
2022/05/30 08:11:17;;;;;;;1.33;0.50;;;;;;;18.18;61.23;101291.97;5070409;28;20028;-80
2022/05/30 08:13:45;;;;;;;1.80;0.50;;;;;;;18.58;58.35;101303.09;5068714;28;20031;-78
2022/05/30 08:16:12;;;;;;;4.38;1.15;;;;;;;19.61;59.63;101308.78;5067787;28;20027;-78
2022/05/30 08:18:37;;;;;;;1.88;0.47;;;;;;;19.83;55.27;101290.78;5068113;28;20524;-78
2022/05/30 08:21:04;;;;;;;5.10;0.88;;;;;;;19.48;56.63;101301.50;5068979;28;20043;-78
2022/05/30 08:23:30;;;;;;;1.70;0.30;;;;;;;18.50;58.55;101272.78;5067990;28;20532;-78
2022/05/30 08:25:55;;;;;;;1.23;0.50;;;;;;;17.99;62.81;101288.91;5068359;28;20562;-79
2022/05/30 08:28:21;;;;;;;2.40;0.65;;;;;;;17.37;69.36;101319.50;5065600;28;20096;-79
2022/05/30 08:30:47;;;;;;;6.18;1.13;;;;;;;16.45;70.00;101315.09;5032511;28;20060;-79
2022/05/30 08:33:15;;;;;;;2.10;0.57;;;;;;;15.62;71.78;101321.81;5069757;28;20374;-80
2022/05/30 08:35:41;;;;;;;0.95;0.30;;;;;;;15.38;72.28;101321.91;5065664;28;20054;-80
2022/05/30 08:38:07;;;;;;;0.25;0.15;;;;;;;15.26;72.45;101320.59;5070793;28;20448;-80
2022/05/30 08:43:28;;;;;;;1.92;0.30;;;;;;;15.09;74.83;101323.28;5066649;28;20054;-79
2022/05/30 08:46:08;;;;;;;1.42;0.40;;;;;;;14.86;73.71;101303.69;5068193;28;20473;-79
2022/05/30 08:48:46;;;;;;;2.65;0.52;;;;;;;14.85;75.72;101329.44;5070522;28;20104;-79
2022/05/30 08:51:17;;;;;;;3.55;0.57;;;;;;;14.88;75.57;101333.59;5071832;28;20024;-79
2022/05/30 08:54:05;;;;;;;5.90;1.00;;;;;;;15.08;75.00;101326.09;5069262;28;20024;-79
2022/05/30 08:56:39;;;;;;;4.30;0.90;;;;;;;15.08;75.25;101308.31;5068749;28;20033;-79
2022/05/30 08:59:13;;;;;;;4.65;0.98;;;;;;;14.96;74.24;101330.91;5070522;28;20342;-80
2022/05/30 09:01:41;;;;;;;6.55;0.82;;;;;;;14.43;74.98;101326.88;5070673;28;20035;-79
2022/05/30 09:04:22;;;;;;;6.78;0.85;;;;;;;14.59;76.35;101311.00;5068808;28;20052;-79
2022/05/30 09:06:56;;;;;;;0.68;0.50;;;;;;;14.85;74.97;101324.13;5067703;28;20025;-79
2022/05/30 09:09:31;;;;;;;1.15;0.60;;;;;;;14.98;75.86;101324.47;5070010;28;20055;-79
2022/05/30 09:12:13;;;;;;;1.65;0.52;;;;;;;14.93;74.51;101328.59;5069573;28;20066;-79
2022/05/30 09:14:51;;;;;;;0.60;0.38;;;;;;;15.14;71.73;101312.97;5075251;28;20590;-79
2022/05/30 09:17:23;;;;;;;1.60;0.40;;;;;;;14.65;70.39;101307.66;5068944;28;20482;-79
2022/05/30 09:19:48;;;;;;;2.53;0.40;;;;;;;14.83;69.36;101326.13;5070072;28;20024;-79
2022/05/30 09:22:15;;;;;;;2.80;0.45;;;;;;;14.75;71.43;101332.25;5067481;28;20127;-79
2022/05/30 09:25:55;;;;;;;0.52;0.30;;;;;;;14.63;71.17;101288.41;5068352;28;20090;-79
2022/05/30 09:27:29;;;;;;;0.90;0.55;;;;;;;15.11;72.37;101339.91;5067832;28;20094;-79
2022/05/30 09:30:00;;;;;;;4.05;0.63;;;;;;;15.15;71.60;101330.56;5069055;28;20016;-79
2022/05/30 09:33:14;;;;;;;1.73;0.45;;;;;;;15.01;72.17;101348.03;5083974;28;20024;-79
2022/05/30 09:35:42;;;;;;;2.63;0.50;;;;;;;14.56;74.66;101340.53;5005484;28;20948;-78
2022/05/30 09:38:16;;;;;;;1.63;0.68;;;;;;;14.68;73.94;101343.72;5005969;28;20065;-78
2022/05/30 09:40:46;;;;;;;4.88;0.60;;;;;;;14.48;74.83;101346.66;5005999;28;20494;-79
2022/05/30 09:44:07;;;;;;;2.17;0.40;;;;;;;14.48;75.10;101343.13;5005539;28;20164;-78
2022/05/30 09:46:43;;;;;;;4.65;1.00;;;;;;;14.23;75.71;101347.59;4938761;29;20131;-78
2022/05/30 09:49:30;;;;;;;1.85;0.50;;;;;;;13.77;76.25;101343.41;4929870;29;20099;-78
2022/05/30 09:52:04;;;;;;;0.90;0.60;;;;;;;13.79;78.47;101332.66;4926455;29;20617;-78
2022/05/30 09:54:35;;;;;;;2.03;0.60;;;;;;;14.23;79.46;101353.72;4934393;29;20042;-78
2022/05/30 09:57:10;;;;;;;0.77;0.50;;;;;;;14.02;79.97;101348.81;4938048;29;20046;-78
2022/05/30 09:59:42;;;;;;;1.45;0.75;;;;;;;14.19;78.24;101349.72;4936266;29;20540;-80
2022/05/30 10:02:24;;;;;;;2.58;0.50;;;;;;;14.35;77.51;101349.78;4936252;29;20233;-78
2022/05/30 10:05:00;;;;;;;1.77;0.50;;;;;;;14.22;76.41;101346.75;4935793;29;20103;-78
2022/05/30 10:07:27;;;;;;;2.97;0.50;;;;;;;14.17;77.84;101352.53;4935784;29;20036;-78
2022/05/30 10:10:11;;;;;;;0.90;0.50;;;;;;;14.18;77.37;101361.34;4926800;29;20740;-79
2022/05/30 10:12:53;;;;;;;3.08;0.90;;;;;;;13.98;79.02;101361.59;4919512;29;20039;-79
2022/05/30 10:15:36;;;;;;;2.63;0.45;;;;;;;13.90;79.28;101366.03;4937022;29;20039;-78
2022/05/30 10:18:14;;;;;;;1.27;0.40;;;;;;;13.82;80.42;101368.66;4934657;29;20043;-78
2022/05/30 10:21:00;;;;;;;1.13;0.40;;;;;;;13.93;80.39;101377.16;4966220;28;20494;-78
2022/05/30 10:29:40;;;;;;;2.78;0.77;;;;;;;13.96;79.66;101376.84;5066763;28;20174;-78
2022/05/30 10:32:37;;;;;;;2.10;0.70;;;;;;;14.11;80.14;101384.19;5069240;28;20020;-79
2022/05/30 10:35:23;;;;;;;0.93;0.47;;;;;;;14.28;79.93;101388.56;5054630;28;20025;-79
2022/05/30 10:38:03;;;;;;;1.75;0.50;;;;;;;14.46;79.96;101384.97;5066126;28;20275;-79
2022/05/30 10:41:00;;;;;;;1.65;0.50;;;;;;;14.81;79.15;101376.78;5070966;28;20032;-79
2022/05/30 10:43:50;;;;;;;1.95;0.50;;;;;;;15.27;76.90;101370.94;5071125;28;20032;-79
2022/05/30 10:46:34;;;;;;;1.50;0.40;;;;;;;15.51;74.81;101370.06;5049160;28;20048;-80
2022/05/30 10:49:28;;;;;;;1.08;0.50;;;;;;;15.69;74.10;101375.19;5048816;28;20095;-79
2022/05/30 10:52:32;;;;;;;1.27;0.40;;;;;;;16.01;73.98;101376.94;5042069;28;20036;-79
2022/05/30 10:55:38;;;;;;;0.75;0.30;;;;;;;16.44;71.66;101371.25;5040255;28;20111;-79
2022/05/30 10:58:32;;;;;;;0.28;0.17;;;;;;;16.99;68.44;101366.72;4967993;28;20406;-79
2022/05/30 11:01:09;;;;;;;0.75;0.30;;;;;;;17.10;66.49;101346.78;4966397;28;20058;-79
2022/05/30 11:03:37;;;;;;;1.98;0.22;;;;;;;17.54;63.74;101373.53;4967202;28;20038;-79
2022/05/30 11:06:23;;;;;;;1.17;0.40;;;;;;;18.22;66.21;101384.09;4969164;28;20103;-81
2022/05/30 11:08:58;;;;;;;1.02;0.30;;;;;;;19.66;60.41;101383.97;4968540;28;20122;-79
2022/05/30 11:11:34;;;;;;;1.95;0.50;;;;;;;19.81;59.44;101378.53;4967502;28;20105;-79
2022/05/30 11:14:27;;;;;;;1.50;0.50;;;;;;;19.57;59.23;101383.28;4967369;28;20107;-79
2022/05/30 11:17:07;;;;;;;2.40;0.35;;;;;;;19.38;57.73;101384.00;4966607;28;20015;-79
2022/05/30 11:19:45;;;;;;;1.65;0.40;;;;;;;19.18;58.99;101394.53;4964728;28;20045;-79
2022/05/30 11:22:27;;;;;;;2.83;0.40;;;;;;;18.75;62.22;101395.38;4968224;28;20038;-79
2022/05/30 11:24:54;;;;;;;1.75;0.38;;;;;;;18.12;63.39;101388.91;4967513;28;20122;-79
2022/05/30 11:27:41;;;;;;;0.40;0.28;;;;;;;17.81;64.94;101406.78;4936318;28;20043;-79
2022/05/30 11:30:15;;;;;;;1.73;0.50;;;;;;;17.37;67.17;101414.72;4968814;28;20127;-79
2022/05/30 11:32:43;;;;;;;2.03;0.30;;;;;;;16.91;69.58;101423.59;4980071;28;20529;-80
2022/05/30 11:35:59;;;;;;;1.05;0.40;;;;;;;16.42;70.11;101410.56;5031842;28;20048;-80
2022/05/30 11:38:46;;;;;;;3.15;0.60;;;;;;;16.24;70.45;101411.63;4968952;28;20604;-80
2022/05/30 11:41:32;;;;;;;1.60;0.50;;;;;;;16.11;72.16;101413.16;4970533;28;20034;-80
2022/05/30 11:44:18;;;;;;;1.20;0.25;;;;;;;15.93;72.27;101387.63;4974830;28;20108;-83
2022/05/30 11:47:12;;;;;;;1.45;0.35;;;;;;;15.92;71.06;101398.44;5008291;28;20037;-81
2022/05/30 11:49:51;;;;;;;1.85;0.80;;;;;;;16.06;72.13;101399.56;5005196;28;20029;-81
2022/05/30 11:52:35;;;;;;;2.42;0.52;;;;;;;16.45;71.91;101405.69;5005126;28;20026;-80
2022/05/30 11:55:06;;;;;;;0.88;0.38;;;;;;;16.70;71.65;101400.22;5006826;28;20502;-79
2022/05/30 11:57:46;;;;;;;1.55;0.32;;;;;;;17.05;69.34;101388.16;5008015;28;20026;-80
2022/05/30 12:00:34;;;;;;;1.52;0.32;;;;;;;18.44;68.36;101404.53;5006655;28;20042;-79
2022/05/30 12:03:02;;;;;;;1.05;0.35;;;;;;;20.72;62.66;101407.75;5005629;28;20033;-80
2022/05/30 12:05:53;;;;;;;1.73;0.40;;;;;;;22.28;54.95;101406.38;5006861;28;20065;-80